This is the latest recevied weather packets stored in our database for station/object DL5TW-13. If no packets are shown the sender has not sent any weather packets the latest 1 day(s).
| Time | Temp. | Humidity | Pressure | Rain* | Wind** | Luminosity | Snow |
|---|---|---|---|---|---|---|---|
| 1778061372 | 17.78° C | 62% | 1001.1 hPa | 0 mm | - | - | - |
| 1778061072 | 17.78° C | 62% | 1001 hPa | 0 mm | - | - | - |
| 1778060471 | 17.78° C | 61% | 1000.9 hPa | 0 mm | - | - | - |
| 1778060171 | 18.33° C | 60% | 1000.8 hPa | 0 mm | - | - | - |
| 1778059871 | 18.89° C | 59% | 1000.8 hPa | 0 mm | - | - | - |
| 1778059270 | 19.44° C | 59% | 1000.6 hPa | 0 mm | - | - | - |
| 1778058970 | 19.44° C | 59% | 1000.5 hPa | 0 mm | - | - | - |
| 1778058069 | 17.78° C | 62% | 1000.3 hPa | 0 mm | - | - | - |
| 1778057168 | 17.22° C | 66% | 1000.3 hPa | 0 mm | - | - | - |
| 1778056868 | 17.22° C | 66% | 1000.3 hPa | 0 mm | - | - | - |
| 1778055967 | 16.67° C | 66% | 1000.2 hPa | 0 mm | - | - | - |
| 1778055667 | 17.22° C | 67% | 1000.2 hPa | 0 mm | - | - | - |
| 1778055066 | 16.67° C | 68% | 1000.2 hPa | 0 mm | - | - | - |
| 1778054766 | 16.67° C | 69% | 1000.1 hPa | 0 mm | - | - | - |
| 1778054165 | 16.67° C | 68% | 1000 hPa | 0 mm | - | - | - |
| 1778053865 | 16.67° C | 68% | 1000 hPa | 0 mm | - | - | - |
| 1778053565 | 17.22° C | 68% | 1000 hPa | 0 mm | - | - | - |
| 1778052964 | 16.67° C | 68% | 999.8 hPa | 0 mm | - | - | - |
| 1778052664 | 16.67° C | 68% | 999.8 hPa | 0 mm | - | - | - |
| 1778051763 | 18.33° C | 69% | 999.9 hPa | 0 mm | - | - | - |
| 1778050862 | 18.33° C | 72% | 1000.1 hPa | 0 mm | - | - | - |
| 1778050562 | 17.78° C | 71% | 1000 hPa | 0 mm | - | - | - |
| 1778049961 | 17.78° C | 76% | 999.9 hPa | 0 mm | - | - | - |
| 1778049661 | 17.22° C | 78% | 1000 hPa | 0 mm | - | - | - |
| 1778048760 | 15° C | 87% | 999.9 hPa | 0 mm | - | - | - |
* Rain latest hour (hover to see other rain measurements)
** Current wind speed in m/s (hover to see current wind gust speed)